sensor_id;sensor_type;location;lat;lon;timestamp;P1;durP1;ratioP1;P2;durP2;ratioP2
81026;SDS011;70506;49.320;8.446;2024-01-27T00:02:16;3.60;;;1.20;;
81026;SDS011;70506;49.320;8.446;2024-01-27T00:04:41;5.67;;;1.30;;
81026;SDS011;70506;49.320;8.446;2024-01-27T00:07:07;6.17;;;1.50;;
81026;SDS011;70506;49.320;8.446;2024-01-27T00:09:32;6.27;;;1.70;;
81026;SDS011;70506;49.320;8.446;2024-01-27T00:11:57;1.93;;;1.37;;
81026;SDS011;70506;49.320;8.446;2024-01-27T00:14:23;3.20;;;1.45;;
81026;SDS011;70506;49.320;8.446;2024-01-27T00:16:48;8.23;;;1.50;;
81026;SDS011;70506;49.320;8.446;2024-01-27T00:19:13;7.73;;;2.03;;
81026;SDS011;70506;49.320;8.446;2024-01-27T00:21:39;2.60;;;1.40;;
81026;SDS011;70506;49.320;8.446;2024-01-27T00:24:04;2.42;;;1.02;;
81026;SDS011;70506;49.320;8.446;2024-01-27T00:26:29;2.03;;;0.90;;
81026;SDS011;70506;49.320;8.446;2024-01-27T00:28:55;3.33;;;0.93;;
81026;SDS011;70506;49.320;8.446;2024-01-27T00:31:20;2.53;;;1.30;;
81026;SDS011;70506;49.320;8.446;2024-01-27T00:33:46;2.08;;;1.25;;
81026;SDS011;70506;49.320;8.446;2024-01-27T00:36:11;2.27;;;1.10;;
81026;SDS011;70506;49.320;8.446;2024-01-27T00:38:37;4.47;;;0.95;;
81026;SDS011;70506;49.320;8.446;2024-01-27T00:41:04;3.50;;;1.20;;
81026;SDS011;70506;49.320;8.446;2024-01-27T00:43:29;3.38;;;1.73;;
81026;SDS011;70506;49.320;8.446;2024-01-27T00:45:55;2.28;;;1.20;;
81026;SDS011;70506;49.320;8.446;2024-01-27T00:48:21;2.88;;;1.33;;
81026;SDS011;70506;49.320;8.446;2024-01-27T00:50:47;2.85;;;0.85;;
81026;SDS011;70506;49.320;8.446;2024-01-27T00:53:12;1.53;;;0.90;;
81026;SDS011;70506;49.320;8.446;2024-01-27T00:55:38;4.57;;;1.30;;
81026;SDS011;70506;49.320;8.446;2024-01-27T00:58:03;0.87;;;0.70;;
81026;SDS011;70506;49.320;8.446;2024-01-27T01:00:28;1.27;;;0.82;;
81026;SDS011;70506;49.320;8.446;2024-01-27T01:02:54;7.03;;;0.93;;
81026;SDS011;70506;49.320;8.446;2024-01-27T01:05:19;1.57;;;0.93;;
81026;SDS011;70506;49.320;8.446;2024-01-27T01:07:45;6.03;;;0.98;;
81026;SDS011;70506;49.320;8.446;2024-01-27T01:10:14;1.38;;;0.93;;
81026;SDS011;70506;49.320;8.446;2024-01-27T01:12:39;3.10;;;0.85;;
81026;SDS011;70506;49.320;8.446;2024-01-27T01:15:05;1.52;;;0.63;;
81026;SDS011;70506;49.320;8.446;2024-01-27T01:17:32;4.38;;;0.73;;
81026;SDS011;70506;49.320;8.446;2024-01-27T01:22:22;2.67;;;1.37;;
81026;SDS011;70506;49.320;8.446;2024-01-27T01:24:47;3.10;;;1.23;;
81026;SDS011;70506;49.320;8.446;2024-01-27T01:27:13;5.45;;;1.20;;
81026;SDS011;70506;49.320;8.446;2024-01-27T01:29:38;1.52;;;1.02;;
81026;SDS011;70506;49.320;8.446;2024-01-27T01:32:04;2.55;;;0.98;;
81026;SDS011;70506;49.320;8.446;2024-01-27T01:34:29;1.90;;;1.17;;
81026;SDS011;70506;49.320;8.446;2024-01-27T01:36:54;0.90;;;0.50;;
81026;SDS011;70506;49.320;8.446;2024-01-27T01:39:20;2.33;;;0.82;;
81026;SDS011;70506;49.320;8.446;2024-01-27T01:41:45;1.50;;;0.77;;
81026;SDS011;70506;49.320;8.446;2024-01-27T01:44:10;2.50;;;0.57;;
81026;SDS011;70506;49.320;8.446;2024-01-27T01:46:36;2.22;;;0.57;;
81026;SDS011;70506;49.320;8.446;2024-01-27T01:49:01;4.07;;;1.10;;
81026;SDS011;70506;49.320;8.446;2024-01-27T01:51:27;2.72;;;1.20;;
81026;SDS011;70506;49.320;8.446;2024-01-27T01:53:53;2.83;;;1.10;;
81026;SDS011;70506;49.320;8.446;2024-01-27T01:56:20;3.38;;;1.15;;
81026;SDS011;70506;49.320;8.446;2024-01-27T01:58:45;1.42;;;0.90;;
81026;SDS011;70506;49.320;8.446;2024-01-27T02:01:11;1.20;;;0.85;;
81026;SDS011;70506;49.320;8.446;2024-01-27T02:03:36;2.30;;;1.08;;
81026;SDS011;70506;49.320;8.446;2024-01-27T02:06:01;8.07;;;1.57;;
81026;SDS011;70506;49.320;8.446;2024-01-27T02:08:27;4.30;;;0.88;;
81026;SDS011;70506;49.320;8.446;2024-01-27T02:10:52;7.27;;;1.27;;
81026;SDS011;70506;49.320;8.446;2024-01-27T02:13:18;2.73;;;1.13;;
81026;SDS011;70506;49.320;8.446;2024-01-27T02:15:47;4.80;;;0.77;;
81026;SDS011;70506;49.320;8.446;2024-01-27T02:18:13;2.20;;;0.93;;
81026;SDS011;70506;49.320;8.446;2024-01-27T02:20:39;7.68;;;1.52;;
81026;SDS011;70506;49.320;8.446;2024-01-27T02:23:05;1.33;;;0.60;;
81026;SDS011;70506;49.320;8.446;2024-01-27T02:25:31;4.47;;;1.00;;
81026;SDS011;70506;49.320;8.446;2024-01-27T02:27:56;6.43;;;1.42;;
81026;SDS011;70506;49.320;8.446;2024-01-27T02:30:21;2.80;;;1.17;;
81026;SDS011;70506;49.320;8.446;2024-01-27T02:32:47;3.58;;;1.38;;
81026;SDS011;70506;49.320;8.446;2024-01-27T02:35:12;2.73;;;1.63;;
81026;SDS011;70506;49.320;8.446;2024-01-27T02:37:39;3.08;;;1.30;;
81026;SDS011;70506;49.320;8.446;2024-01-27T02:40:05;4.93;;;0.90;;
81026;SDS011;70506;49.320;8.446;2024-01-27T02:42:32;4.75;;;1.30;;
81026;SDS011;70506;49.320;8.446;2024-01-27T02:44:57;2.72;;;1.30;;
81026;SDS011;70506;49.320;8.446;2024-01-27T02:47:23;0.93;;;0.75;;
81026;SDS011;70506;49.320;8.446;2024-01-27T02:49:48;3.00;;;1.30;;
81026;SDS011;70506;49.320;8.446;2024-01-27T02:52:13;4.53;;;0.90;;
81026;SDS011;70506;49.320;8.446;2024-01-27T02:54:39;1.80;;;0.90;;
81026;SDS011;70506;49.320;8.446;2024-01-27T02:57:04;3.10;;;0.98;;
81026;SDS011;70506;49.320;8.446;2024-01-27T02:59:30;2.30;;;1.10;;
81026;SDS011;70506;49.320;8.446;2024-01-27T03:01:55;4.30;;;0.97;;
81026;SDS011;70506;49.320;8.446;2024-01-27T03:04:20;3.53;;;1.30;;
81026;SDS011;70506;49.320;8.446;2024-01-27T03:06:46;2.47;;;1.17;;
81026;SDS011;70506;49.320;8.446;2024-01-27T03:09:12;2.20;;;1.13;;
81026;SDS011;70506;49.320;8.446;2024-01-27T03:11:37;1.77;;;0.98;;
81026;SDS011;70506;49.320;8.446;2024-01-27T03:14:03;1.83;;;1.10;;
81026;SDS011;70506;49.320;8.446;2024-01-27T03:16:28;3.53;;;1.17;;
81026;SDS011;70506;49.320;8.446;2024-01-27T03:18:53;2.63;;;1.10;;
81026;SDS011;70506;49.320;8.446;2024-01-27T03:21:19;6.05;;;1.38;;
81026;SDS011;70506;49.320;8.446;2024-01-27T03:23:44;1.40;;;1.00;;
81026;SDS011;70506;49.320;8.446;2024-01-27T03:26:09;8.63;;;1.30;;
81026;SDS011;70506;49.320;8.446;2024-01-27T03:28:35;1.90;;;1.50;;
81026;SDS011;70506;49.320;8.446;2024-01-27T03:31:00;2.22;;;1.00;;
81026;SDS011;70506;49.320;8.446;2024-01-27T03:33:26;4.30;;;1.17;;
81026;SDS011;70506;49.320;8.446;2024-01-27T03:35:54;2.75;;;1.73;;
81026;SDS011;70506;49.320;8.446;2024-01-27T03:38:19;1.30;;;1.20;;
81026;SDS011;70506;49.320;8.446;2024-01-27T03:40:44;1.33;;;1.00;;
81026;SDS011;70506;49.320;8.446;2024-01-27T03:43:09;1.60;;;0.73;;
81026;SDS011;70506;49.320;8.446;2024-01-27T03:45:35;2.73;;;0.93;;
81026;SDS011;70506;49.320;8.446;2024-01-27T03:48:00;1.33;;;0.73;;
81026;SDS011;70506;49.320;8.446;2024-01-27T03:50:25;1.70;;;1.00;;
81026;SDS011;70506;49.320;8.446;2024-01-27T03:52:51;2.07;;;1.30;;
81026;SDS011;70506;49.320;8.446;2024-01-27T03:55:16;3.03;;;0.77;;
81026;SDS011;70506;49.320;8.446;2024-01-27T03:57:41;2.70;;;0.97;;
81026;SDS011;70506;49.320;8.446;2024-01-27T04:00:07;2.23;;;1.33;;
81026;SDS011;70506;49.320;8.446;2024-01-27T04:02:32;4.93;;;1.77;;
81026;SDS011;70506;49.320;8.446;2024-01-27T04:04:58;1.63;;;0.75;;
81026;SDS011;70506;49.320;8.446;2024-01-27T04:07:24;3.40;;;1.20;;
81026;SDS011;70506;49.320;8.446;2024-01-27T04:09:49;1.52;;;1.20;;
81026;SDS011;70506;49.320;8.446;2024-01-27T04:12:14;3.97;;;0.88;;
81026;SDS011;70506;49.320;8.446;2024-01-27T04:14:40;1.80;;;0.82;;
81026;SDS011;70506;49.320;8.446;2024-01-27T04:17:05;3.05;;;1.15;;
81026;SDS011;70506;49.320;8.446;2024-01-27T04:19:31;2.30;;;1.20;;
81026;SDS011;70506;49.320;8.446;2024-01-27T04:21:56;2.85;;;1.08;;
81026;SDS011;70506;49.320;8.446;2024-01-27T04:24:21;3.33;;;1.17;;
81026;SDS011;70506;49.320;8.446;2024-01-27T04:26:47;1.40;;;0.90;;
81026;SDS011;70506;49.320;8.446;2024-01-27T04:29:12;6.10;;;1.90;;
81026;SDS011;70506;49.320;8.446;2024-01-27T04:31:40;9.68;;;0.90;;
81026;SDS011;70506;49.320;8.446;2024-01-27T04:34:06;2.00;;;1.20;;
81026;SDS011;70506;49.320;8.446;2024-01-27T04:36:31;5.33;;;1.00;;
81026;SDS011;70506;49.320;8.446;2024-01-27T04:38:56;3.47;;;1.05;;
81026;SDS011;70506;49.320;8.446;2024-01-27T04:41:22;8.80;;;1.00;;
81026;SDS011;70506;49.320;8.446;2024-01-27T04:43:47;1.45;;;1.15;;
81026;SDS011;70506;49.320;8.446;2024-01-27T04:46:12;1.55;;;1.02;;
81026;SDS011;70506;49.320;8.446;2024-01-27T04:48:38;3.23;;;1.33;;
81026;SDS011;70506;49.320;8.446;2024-01-27T04:51:03;3.43;;;1.33;;
81026;SDS011;70506;49.320;8.446;2024-01-27T04:53:28;2.83;;;1.23;;
81026;SDS011;70506;49.320;8.446;2024-01-27T04:55:54;2.63;;;0.93;;
81026;SDS011;70506;49.320;8.446;2024-01-27T04:58:19;3.13;;;1.37;;
81026;SDS011;70506;49.320;8.446;2024-01-27T05:00:44;2.10;;;1.20;;
81026;SDS011;70506;49.320;8.446;2024-01-27T05:03:10;2.77;;;1.50;;
81026;SDS011;70506;49.320;8.446;2024-01-27T05:05:40;1.85;;;1.27;;
81026;SDS011;70506;49.320;8.446;2024-01-27T05:08:06;1.38;;;1.10;;
81026;SDS011;70506;49.320;8.446;2024-01-27T05:10:31;1.87;;;1.03;;
81026;SDS011;70506;49.320;8.446;2024-01-27T05:12:56;1.77;;;1.13;;
81026;SDS011;70506;49.320;8.446;2024-01-27T05:15:22;5.03;;;1.33;;
81026;SDS011;70506;49.320;8.446;2024-01-27T05:17:47;4.25;;;1.63;;
81026;SDS011;70506;49.320;8.446;2024-01-27T05:20:12;2.43;;;1.40;;
81026;SDS011;70506;49.320;8.446;2024-01-27T05:22:38;9.87;;;2.30;;
81026;SDS011;70506;49.320;8.446;2024-01-27T05:25:03;3.97;;;1.60;;
81026;SDS011;70506;49.320;8.446;2024-01-27T05:27:29;1.15;;;0.90;;
81026;SDS011;70506;49.320;8.446;2024-01-27T05:29:55;4.68;;;1.75;;
81026;SDS011;70506;49.320;8.446;2024-01-27T05:32:20;8.20;;;2.27;;
81026;SDS011;70506;49.320;8.446;2024-01-27T05:34:45;4.67;;;2.07;;
81026;SDS011;70506;49.320;8.446;2024-01-27T05:37:10;6.27;;;2.40;;
81026;SDS011;70506;49.320;8.446;2024-01-27T05:39:37;3.22;;;1.73;;
81026;SDS011;70506;49.320;8.446;2024-01-27T05:42:03;10.07;;;1.63;;
81026;SDS011;70506;49.320;8.446;2024-01-27T05:44:28;4.13;;;1.58;;
81026;SDS011;70506;49.320;8.446;2024-01-27T05:46:54;12.02;;;2.42;;
81026;SDS011;70506;49.320;8.446;2024-01-27T05:49:19;2.97;;;2.00;;
81026;SDS011;70506;49.320;8.446;2024-01-27T05:51:44;3.77;;;2.07;;
81026;SDS011;70506;49.320;8.446;2024-01-27T05:54:10;4.50;;;1.77;;
81026;SDS011;70506;49.320;8.446;2024-01-27T05:56:38;5.18;;;2.88;;
81026;SDS011;70506;49.320;8.446;2024-01-27T05:59:03;4.30;;;2.07;;
81026;SDS011;70506;49.320;8.446;2024-01-27T06:01:29;2.67;;;1.73;;
81026;SDS011;70506;49.320;8.446;2024-01-27T06:03:54;7.17;;;2.33;;
81026;SDS011;70506;49.320;8.446;2024-01-27T06:06:20;2.60;;;1.70;;
81026;SDS011;70506;49.320;8.446;2024-01-27T06:08:45;4.30;;;2.20;;
81026;SDS011;70506;49.320;8.446;2024-01-27T06:11:12;4.97;;;2.07;;
81026;SDS011;70506;49.320;8.446;2024-01-27T06:13:37;3.60;;;1.65;;
81026;SDS011;70506;49.320;8.446;2024-01-27T06:16:06;4.57;;;2.45;;
81026;SDS011;70506;49.320;8.446;2024-01-27T06:18:33;3.78;;;2.15;;
81026;SDS011;70506;49.320;8.446;2024-01-27T06:20:59;2.90;;;1.97;;
81026;SDS011;70506;49.320;8.446;2024-01-27T06:23:24;3.83;;;1.97;;
81026;SDS011;70506;49.320;8.446;2024-01-27T06:25:49;7.10;;;2.00;;
81026;SDS011;70506;49.320;8.446;2024-01-27T06:28:15;6.65;;;2.75;;
81026;SDS011;70506;49.320;8.446;2024-01-27T06:30:41;4.40;;;2.08;;
81026;SDS011;70506;49.320;8.446;2024-01-27T06:33:07;4.32;;;2.00;;
81026;SDS011;70506;49.320;8.446;2024-01-27T06:35:35;3.90;;;2.70;;
81026;SDS011;70506;49.320;8.446;2024-01-27T06:38:00;2.83;;;1.60;;
81026;SDS011;70506;49.320;8.446;2024-01-27T06:40:25;5.57;;;2.27;;
81026;SDS011;70506;49.320;8.446;2024-01-27T06:42:50;2.87;;;1.30;;
81026;SDS011;70506;49.320;8.446;2024-01-27T06:45:16;6.68;;;2.28;;
81026;SDS011;70506;49.320;8.446;2024-01-27T06:47:41;5.03;;;2.27;;
81026;SDS011;70506;49.320;8.446;2024-01-27T06:50:07;4.47;;;2.57;;
81026;SDS011;70506;49.320;8.446;2024-01-27T06:52:32;1.95;;;1.42;;
81026;SDS011;70506;49.320;8.446;2024-01-27T06:54:57;2.93;;;1.87;;
81026;SDS011;70506;49.320;8.446;2024-01-27T06:57:23;3.93;;;1.50;;
81026;SDS011;70506;49.320;8.446;2024-01-27T06:59:49;3.47;;;1.77;;
81026;SDS011;70506;49.320;8.446;2024-01-27T07:02:25;1.77;;;1.38;;
81026;SDS011;70506;49.320;8.446;2024-01-27T07:04:53;3.60;;;2.03;;
81026;SDS011;70506;49.320;8.446;2024-01-27T07:07:21;4.45;;;2.03;;
81026;SDS011;70506;49.320;8.446;2024-01-27T07:09:48;3.55;;;2.33;;
81026;SDS011;70506;49.320;8.446;2024-01-27T07:12:13;2.43;;;1.47;;
81026;SDS011;70506;49.320;8.446;2024-01-27T07:14:38;3.47;;;1.87;;
81026;SDS011;70506;49.320;8.446;2024-01-27T07:17:04;7.33;;;2.60;;
81026;SDS011;70506;49.320;8.446;2024-01-27T07:19:30;2.70;;;1.75;;
81026;SDS011;70506;49.320;8.446;2024-01-27T07:21:55;2.40;;;1.70;;
81026;SDS011;70506;49.320;8.446;2024-01-27T07:24:20;5.00;;;2.00;;
81026;SDS011;70506;49.320;8.446;2024-01-27T07:26:46;2.77;;;1.77;;
81026;SDS011;70506;49.320;8.446;2024-01-27T07:29:11;5.97;;;2.17;;
81026;SDS011;70506;49.320;8.446;2024-01-27T07:31:36;3.88;;;2.35;;
81026;SDS011;70506;49.320;8.446;2024-01-27T07:34:02;2.63;;;1.70;;
81026;SDS011;70506;49.320;8.446;2024-01-27T07:36:27;4.50;;;2.30;;
81026;SDS011;70506;49.320;8.446;2024-01-27T07:38:57;2.83;;;1.85;;
81026;SDS011;70506;49.320;8.446;2024-01-27T07:41:22;3.72;;;1.95;;
81026;SDS011;70506;49.320;8.446;2024-01-27T07:43:48;3.77;;;2.07;;
81026;SDS011;70506;49.320;8.446;2024-01-27T07:46:13;9.93;;;2.10;;
81026;SDS011;70506;49.320;8.446;2024-01-27T07:48:38;7.63;;;1.80;;
81026;SDS011;70506;49.320;8.446;2024-01-27T07:51:04;3.27;;;2.00;;
81026;SDS011;70506;49.320;8.446;2024-01-27T07:53:29;7.67;;;2.70;;
81026;SDS011;70506;49.320;8.446;2024-01-27T07:55:54;6.32;;;2.20;;
81026;SDS011;70506;49.320;8.446;2024-01-27T07:58:21;3.85;;;1.90;;
81026;SDS011;70506;49.320;8.446;2024-01-27T08:00:46;5.65;;;2.50;;
81026;SDS011;70506;49.320;8.446;2024-01-27T08:03:11;2.78;;;1.98;;
81026;SDS011;70506;49.320;8.446;2024-01-27T08:05:37;5.17;;;2.13;;
81026;SDS011;70506;49.320;8.446;2024-01-27T08:08:02;4.03;;;1.67;;
81026;SDS011;70506;49.320;8.446;2024-01-27T08:10:28;7.82;;;2.17;;
81026;SDS011;70506;49.320;8.446;2024-01-27T08:12:54;13.77;;;2.93;;
81026;SDS011;70506;49.320;8.446;2024-01-27T08:15:19;5.27;;;2.87;;
81026;SDS011;70506;49.320;8.446;2024-01-27T08:17:44;6.57;;;2.83;;
81026;SDS011;70506;49.320;8.446;2024-01-27T08:20:10;6.45;;;2.38;;
81026;SDS011;70506;49.320;8.446;2024-01-27T08:22:36;13.05;;;3.30;;
81026;SDS011;70506;49.320;8.446;2024-01-27T08:25:01;8.25;;;3.15;;
81026;SDS011;70506;49.320;8.446;2024-01-27T08:27:26;5.87;;;2.80;;
81026;SDS011;70506;49.320;8.446;2024-01-27T08:29:52;7.30;;;2.97;;
81026;SDS011;70506;49.320;8.446;2024-01-27T08:32:17;5.20;;;2.17;;
81026;SDS011;70506;49.320;8.446;2024-01-27T08:34:43;7.45;;;2.90;;
81026;SDS011;70506;49.320;8.446;2024-01-27T08:37:15;6.17;;;2.77;;
81026;SDS011;70506;49.320;8.446;2024-01-27T08:39:42;5.40;;;2.95;;
81026;SDS011;70506;49.320;8.446;2024-01-27T08:42:07;9.10;;;3.80;;
81026;SDS011;70506;49.320;8.446;2024-01-27T08:44:32;6.17;;;3.50;;
81026;SDS011;70506;49.320;8.446;2024-01-27T08:46:58;6.20;;;3.17;;
81026;SDS011;70506;49.320;8.446;2024-01-27T08:49:23;7.50;;;3.40;;
81026;SDS011;70506;49.320;8.446;2024-01-27T08:51:48;6.53;;;3.13;;
81026;SDS011;70506;49.320;8.446;2024-01-27T08:54:14;6.30;;;3.37;;
81026;SDS011;70506;49.320;8.446;2024-01-27T08:56:39;4.53;;;3.47;;
81026;SDS011;70506;49.320;8.446;2024-01-27T08:59:06;5.72;;;3.30;;
81026;SDS011;70506;49.320;8.446;2024-01-27T09:01:31;11.27;;;3.43;;
81026;SDS011;70506;49.320;8.446;2024-01-27T09:03:56;6.88;;;3.83;;
81026;SDS011;70506;49.320;8.446;2024-01-27T09:06:22;5.80;;;3.10;;
81026;SDS011;70506;49.320;8.446;2024-01-27T09:08:47;5.85;;;3.28;;
81026;SDS011;70506;49.320;8.446;2024-01-27T09:11:12;7.83;;;3.90;;
81026;SDS011;70506;49.320;8.446;2024-01-27T09:13:38;8.35;;;3.95;;
81026;SDS011;70506;49.320;8.446;2024-01-27T09:16:03;5.03;;;3.10;;
81026;SDS011;70506;49.320;8.446;2024-01-27T09:18:28;6.20;;;3.38;;
81026;SDS011;70506;49.320;8.446;2024-01-27T09:20:54;10.20;;;3.10;;
81026;SDS011;70506;49.320;8.446;2024-01-27T09:23:19;6.47;;;3.60;;
81026;SDS011;70506;49.320;8.446;2024-01-27T09:25:44;6.93;;;4.07;;
81026;SDS011;70506;49.320;8.446;2024-01-27T09:28:10;16.50;;;3.63;;
81026;SDS011;70506;49.320;8.446;2024-01-27T09:30:36;7.88;;;3.58;;
81026;SDS011;70506;49.320;8.446;2024-01-27T09:33:01;7.50;;;3.43;;
81026;SDS011;70506;49.320;8.446;2024-01-27T09:35:27;7.60;;;2.83;;
81026;SDS011;70506;49.320;8.446;2024-01-27T09:37:52;11.13;;;2.53;;
81026;SDS011;70506;49.320;8.446;2024-01-27T09:40:17;12.07;;;3.20;;
81026;SDS011;70506;49.320;8.446;2024-01-27T09:42:46;6.03;;;3.30;;
81026;SDS011;70506;49.320;8.446;2024-01-27T09:45:22;8.30;;;3.17;;
81026;SDS011;70506;49.320;8.446;2024-01-27T09:47:47;11.75;;;3.20;;
81026;SDS011;70506;49.320;8.446;2024-01-27T09:50:13;6.20;;;2.73;;
81026;SDS011;70506;49.320;8.446;2024-01-27T09:52:39;7.13;;;3.13;;
81026;SDS011;70506;49.320;8.446;2024-01-27T09:55:05;9.18;;;3.50;;
81026;SDS011;70506;49.320;8.446;2024-01-27T09:57:30;5.47;;;2.58;;
81026;SDS011;70506;49.320;8.446;2024-01-27T09:59:56;9.70;;;2.85;;
81026;SDS011;70506;49.320;8.446;2024-01-27T10:02:21;10.07;;;3.22;;
81026;SDS011;70506;49.320;8.446;2024-01-27T10:04:49;9.05;;;2.85;;
81026;SDS011;70506;49.320;8.446;2024-01-27T10:07:14;5.75;;;2.70;;
81026;SDS011;70506;49.320;8.446;2024-01-27T10:09:39;14.97;;;3.10;;
81026;SDS011;70506;49.320;8.446;2024-01-27T10:12:06;7.72;;;1.92;;
81026;SDS011;70506;49.320;8.446;2024-01-27T10:14:42;8.77;;;2.90;;
81026;SDS011;70506;49.320;8.446;2024-01-27T10:17:10;3.03;;;1.90;;
81026;SDS011;70506;49.320;8.446;2024-01-27T10:22:02;6.50;;;2.40;;
81026;SDS011;70506;49.320;8.446;2024-01-27T10:24:28;4.53;;;2.08;;
81026;SDS011;70506;49.320;8.446;2024-01-27T10:27:02;3.03;;;1.75;;
81026;SDS011;70506;49.320;8.446;2024-01-27T10:29:28;3.30;;;1.98;;
81026;SDS011;70506;49.320;8.446;2024-01-27T10:31:54;2.83;;;1.55;;
81026;SDS011;70506;49.320;8.446;2024-01-27T10:34:20;4.03;;;2.10;;
81026;SDS011;70506;49.320;8.446;2024-01-27T10:36:45;5.22;;;1.92;;
81026;SDS011;70506;49.320;8.446;2024-01-27T10:39:17;5.97;;;2.80;;
81026;SDS011;70506;49.320;8.446;2024-01-27T10:41:44;6.45;;;2.40;;
81026;SDS011;70506;49.320;8.446;2024-01-27T10:44:12;7.18;;;2.38;;
81026;SDS011;70506;49.320;8.446;2024-01-27T10:46:39;5.28;;;2.20;;
81026;SDS011;70506;49.320;8.446;2024-01-27T10:49:05;4.60;;;2.58;;
81026;SDS011;70506;49.320;8.446;2024-01-27T10:51:32;4.13;;;2.47;;
81026;SDS011;70506;49.320;8.446;2024-01-27T10:54:00;6.13;;;3.03;;
81026;SDS011;70506;49.320;8.446;2024-01-27T10:56:27;6.15;;;2.70;;
81026;SDS011;70506;49.320;8.446;2024-01-27T10:58:54;8.73;;;2.50;;
81026;SDS011;70506;49.320;8.446;2024-01-27T11:01:20;4.97;;;2.70;;
81026;SDS011;70506;49.320;8.446;2024-01-27T11:03:47;9.10;;;2.97;;
81026;SDS011;70506;49.320;8.446;2024-01-27T11:06:13;8.38;;;2.70;;
81026;SDS011;70506;49.320;8.446;2024-01-27T11:08:39;4.35;;;2.72;;
81026;SDS011;70506;49.320;8.446;2024-01-27T11:11:05;4.93;;;2.65;;
81026;SDS011;70506;49.320;8.446;2024-01-27T11:13:31;10.02;;;2.38;;
81026;SDS011;70506;49.320;8.446;2024-01-27T11:15:57;7.85;;;2.67;;
81026;SDS011;70506;49.320;8.446;2024-01-27T11:18:26;2.13;;;1.90;;
81026;SDS011;70506;49.320;8.446;2024-01-27T11:20:55;6.28;;;2.85;;
81026;SDS011;70506;49.320;8.446;2024-01-27T11:23:30;4.35;;;2.10;;
81026;SDS011;70506;49.320;8.446;2024-01-27T11:26:03;4.93;;;2.35;;
81026;SDS011;70506;49.320;8.446;2024-01-27T11:28:31;8.07;;;2.05;;
81026;SDS011;70506;49.320;8.446;2024-01-27T11:30:57;4.70;;;2.00;;
81026;SDS011;70506;49.320;8.446;2024-01-27T11:33:25;5.78;;;1.95;;
81026;SDS011;70506;49.320;8.446;2024-01-27T11:36:03;5.00;;;1.70;;
81026;SDS011;70506;49.320;8.446;2024-01-27T11:38:32;4.95;;;1.80;;
81026;SDS011;70506;49.320;8.446;2024-01-27T11:41:00;2.63;;;1.55;;
81026;SDS011;70506;49.320;8.446;2024-01-27T11:43:26;2.53;;;1.30;;
81026;SDS011;70506;49.320;8.446;2024-01-27T11:45:58;3.50;;;1.65;;
81026;SDS011;70506;49.320;8.446;2024-01-27T11:48:25;7.88;;;1.60;;
81026;SDS011;70506;49.320;8.446;2024-01-27T11:51:03;4.05;;;1.70;;
81026;SDS011;70506;49.320;8.446;2024-01-27T11:53:28;2.95;;;1.70;;
81026;SDS011;70506;49.320;8.446;2024-01-27T11:55:54;5.43;;;2.10;;
81026;SDS011;70506;49.320;8.446;2024-01-27T11:58:21;11.13;;;2.05;;
81026;SDS011;70506;49.320;8.446;2024-01-27T12:00:46;5.97;;;2.08;;
81026;SDS011;70506;49.320;8.446;2024-01-27T12:03:11;3.88;;;1.42;;
81026;SDS011;70506;49.320;8.446;2024-01-27T12:05:37;5.95;;;1.73;;
81026;SDS011;70506;49.320;8.446;2024-01-27T12:08:02;7.78;;;1.42;;
81026;SDS011;70506;49.320;8.446;2024-01-27T12:10:28;4.40;;;1.52;;
81026;SDS011;70506;49.320;8.446;2024-01-27T12:12:53;7.23;;;1.77;;
81026;SDS011;70506;49.320;8.446;2024-01-27T12:15:18;3.37;;;1.30;;
81026;SDS011;70506;49.320;8.446;2024-01-27T12:17:49;6.30;;;1.80;;
81026;SDS011;70506;49.320;8.446;2024-01-27T12:22:42;4.93;;;1.20;;
81026;SDS011;70506;49.320;8.446;2024-01-27T12:25:09;3.20;;;1.50;;
81026;SDS011;70506;49.320;8.446;2024-01-27T12:27:35;1.90;;;1.25;;
81026;SDS011;70506;49.320;8.446;2024-01-27T12:30:01;3.28;;;1.10;;
81026;SDS011;70506;49.320;8.446;2024-01-27T12:32:26;3.65;;;1.40;;
81026;SDS011;70506;49.320;8.446;2024-01-27T12:34:52;3.38;;;1.35;;
81026;SDS011;70506;49.320;8.446;2024-01-27T12:37:17;8.38;;;1.38;;
81026;SDS011;70506;49.320;8.446;2024-01-27T12:39:43;2.95;;;1.02;;
81026;SDS011;70506;49.320;8.446;2024-01-27T12:44:34;5.22;;;1.30;;
81026;SDS011;70506;49.320;8.446;2024-01-27T12:47:00;9.82;;;1.85;;
81026;SDS011;70506;49.320;8.446;2024-01-27T12:49:26;4.35;;;1.80;;
81026;SDS011;70506;49.320;8.446;2024-01-27T12:51:51;5.90;;;1.50;;
81026;SDS011;70506;49.320;8.446;2024-01-27T12:54:17;6.68;;;1.40;;
81026;SDS011;70506;49.320;8.446;2024-01-27T12:56:42;5.93;;;1.05;;
81026;SDS011;70506;49.320;8.446;2024-01-27T12:59:07;5.82;;;2.05;;
81026;SDS011;70506;49.320;8.446;2024-01-27T13:01:33;4.35;;;1.55;;
81026;SDS011;70506;49.320;8.446;2024-01-27T13:03:58;3.58;;;1.30;;
81026;SDS011;70506;49.320;8.446;2024-01-27T13:06:24;3.90;;;1.30;;
81026;SDS011;70506;49.320;8.446;2024-01-27T13:08:49;5.72;;;1.35;;
81026;SDS011;70506;49.320;8.446;2024-01-27T13:11:15;3.50;;;1.30;;
81026;SDS011;70506;49.320;8.446;2024-01-27T13:13:41;3.30;;;1.00;;
81026;SDS011;70506;49.320;8.446;2024-01-27T13:16:06;4.13;;;1.63;;
81026;SDS011;70506;49.320;8.446;2024-01-27T13:20:57;7.03;;;1.47;;
81026;SDS011;70506;49.320;8.446;2024-01-27T13:23:22;13.32;;;2.00;;
81026;SDS011;70506;49.320;8.446;2024-01-27T13:25:48;4.20;;;1.67;;
81026;SDS011;70506;49.320;8.446;2024-01-27T13:28:13;3.50;;;1.52;;
81026;SDS011;70506;49.320;8.446;2024-01-27T13:33:04;4.20;;;1.42;;
81026;SDS011;70506;49.320;8.446;2024-01-27T13:37:55;2.50;;;1.20;;
81026;SDS011;70506;49.320;8.446;2024-01-27T13:40:20;5.32;;;1.35;;
81026;SDS011;70506;49.320;8.446;2024-01-27T13:42:45;5.50;;;1.57;;
81026;SDS011;70506;49.320;8.446;2024-01-27T13:45:11;4.22;;;1.23;;
81026;SDS011;70506;49.320;8.446;2024-01-27T13:50:01;3.75;;;1.40;;
81026;SDS011;70506;49.320;8.446;2024-01-27T13:54:54;4.88;;;1.20;;
81026;SDS011;70506;49.320;8.446;2024-01-27T13:57:19;3.95;;;1.00;;
81026;SDS011;70506;49.320;8.446;2024-01-27T13:59:44;2.43;;;0.93;;
81026;SDS011;70506;49.320;8.446;2024-01-27T14:02:10;11.20;;;1.38;;
81026;SDS011;70506;49.320;8.446;2024-01-27T14:07:00;3.37;;;1.63;;
81026;SDS011;70506;49.320;8.446;2024-01-27T14:09:31;3.15;;;1.42;;
81026;SDS011;70506;49.320;8.446;2024-01-27T14:11:57;1.75;;;0.90;;
81026;SDS011;70506;49.320;8.446;2024-01-27T14:14:22;4.03;;;0.97;;
81026;SDS011;70506;49.320;8.446;2024-01-27T14:16:48;4.30;;;1.30;;
81026;SDS011;70506;49.320;8.446;2024-01-27T14:19:13;13.13;;;1.50;;
81026;SDS011;70506;49.320;8.446;2024-01-27T14:21:38;6.50;;;1.37;;
81026;SDS011;70506;49.320;8.446;2024-01-27T14:24:05;4.03;;;0.80;;
81026;SDS011;70506;49.320;8.446;2024-01-27T14:26:31;4.15;;;0.75;;
81026;SDS011;70506;49.320;8.446;2024-01-27T14:28:57;3.63;;;0.75;;
81026;SDS011;70506;49.320;8.446;2024-01-27T14:31:22;2.28;;;0.90;;
81026;SDS011;70506;49.320;8.446;2024-01-27T14:33:48;3.87;;;0.83;;
81026;SDS011;70506;49.320;8.446;2024-01-27T14:36:13;4.63;;;1.17;;
81026;SDS011;70506;49.320;8.446;2024-01-27T14:38:39;2.78;;;0.98;;
81026;SDS011;70506;49.320;8.446;2024-01-27T14:41:06;4.15;;;1.10;;
81026;SDS011;70506;49.320;8.446;2024-01-27T14:43:31;3.25;;;1.00;;
81026;SDS011;70506;49.320;8.446;2024-01-27T14:45:57;5.40;;;1.13;;
81026;SDS011;70506;49.320;8.446;2024-01-27T14:48:22;4.28;;;1.40;;
81026;SDS011;70506;49.320;8.446;2024-01-27T14:50:47;1.20;;;0.60;;
81026;SDS011;70506;49.320;8.446;2024-01-27T14:53:18;4.05;;;0.90;;
81026;SDS011;70506;49.320;8.446;2024-01-27T14:55:43;2.13;;;1.02;;
81026;SDS011;70506;49.320;8.446;2024-01-27T14:58:09;3.88;;;0.80;;
81026;SDS011;70506;49.320;8.446;2024-01-27T15:00:35;2.50;;;0.90;;
81026;SDS011;70506;49.320;8.446;2024-01-27T15:03:03;4.07;;;0.93;;
81026;SDS011;70506;49.320;8.446;2024-01-27T15:07:54;1.80;;;1.00;;